VTK503 UHPP-UNNT
Flight info
| Callsign | VTK503 |
|---|---|
| Flight time | 5h 41m |
| Altitude | 36000 |
| Route | BAKEN4L BAKEN A812 OTLIM G119 BANOT G370 UTS W289 GISUN W39 ERBOG W105 LANAP W339 BARIK W261 OKRIM A309 KESED B926 NATIR NATIR1N |
| Aircraft | B748/H-SDE3FGHIM1M2RWXY/LB1 |
Departure
| Time | 2026-04-22 23:35 |
|---|---|
| Airport | Yelizovo Airport (UHPP) |
Arrival
| Time | 2026-04-23 05:16 |
|---|---|
| Airport | Novosibirsk Tolmachevo Airport (UNNT) |
| Time | Latitude | Longitude | Altitude | Speed | Heading |
|---|---|---|---|---|---|
| 2026-04-22 23:02 | 53.16957 | 158.42895 | 143 ft | 0 kts | 190° |
| 2026-04-22 23:24 | 53.16939 | 158.42888 | 143 ft | 5 kts | 193° |
| 2026-04-22 23:24 | 53.16907 | 158.42871 | 143 ft | 1 kts | 213° |
| 2026-04-22 23:24 | 53.16905 | 158.42864 | 143 ft | 1 kts | 230° |
| 2026-04-22 23:25 | 53.16904 | 158.42857 | 143 ft | 1 kts | 244° |
| 2026-04-22 23:25 | 53.16904 | 158.42850 | 143 ft | 1 kts | 259° |
| 2026-04-22 23:25 | 53.16906 | 158.42840 | 143 ft | 1 kts | 281° |
| 2026-04-22 23:25 | 53.16911 | 158.42831 | 143 ft | 1 kts | 306° |
| 2026-04-22 23:26 | 53.16919 | 158.42824 | 143 ft | 4 kts | 328° |
| 2026-04-22 23:26 | 53.16976 | 158.42773 | 143 ft | 11 kts | 342° |
| 2026-04-22 23:26 | 53.17015 | 158.42777 | 143 ft | 2 kts | 28° |
| 2026-04-22 23:26 | 53.17021 | 158.42794 | 143 ft | 4 kts | 55° |
| 2026-04-22 23:27 | 53.17058 | 158.42894 | 143 ft | 15 kts | 60° |
| 2026-04-22 23:27 | 53.17129 | 158.43094 | 143 ft | 24 kts | 58° |
| 2026-04-22 23:27 | 53.17223 | 158.43362 | 143 ft | 29 kts | 60° |
| 2026-04-22 23:27 | 53.17329 | 158.43674 | 143 ft | 31 kts | 59° |
| 2026-04-22 23:28 | 53.17441 | 158.43986 | 143 ft | 33 kts | 62° |
| 2026-04-22 23:28 | 53.17531 | 158.44326 | 144 ft | 30 kts | 68° |
| 2026-04-22 23:28 | 53.17585 | 158.44571 | 145 ft | 9 kts | 88° |
| 2026-04-22 23:28 | 53.17574 | 158.44608 | 145 ft | 3 kts | 132° |
| 2026-04-22 23:29 | 53.17544 | 158.44640 | 145 ft | 7 kts | 153° |
| 2026-04-22 23:29 | 53.17479 | 158.44688 | 146 ft | 13 kts | 158° |
| 2026-04-22 23:29 | 53.17377 | 158.44758 | 145 ft | 19 kts | 158° |
| 2026-04-22 23:29 | 53.17237 | 158.44862 | 144 ft | 25 kts | 156° |
| 2026-04-22 23:30 | 53.17058 | 158.44983 | 143 ft | 30 kts | 158° |
| 2026-04-22 23:30 | 53.16861 | 158.45118 | 144 ft | 29 kts | 158° |
| 2026-04-22 23:30 | 53.16674 | 158.45247 | 143 ft | 29 kts | 157° |
| 2026-04-22 23:30 | 53.16485 | 158.45378 | 141 ft | 29 kts | 158° |
| 2026-04-22 23:31 | 53.16299 | 158.45503 | 141 ft | 29 kts | 158° |
| 2026-04-22 23:31 | 53.16116 | 158.45628 | 143 ft | 28 kts | 158° |
| 2026-04-22 23:31 | 53.15936 | 158.45751 | 145 ft | 28 kts | 158° |
| 2026-04-22 23:31 | 53.15757 | 158.45876 | 145 ft | 28 kts | 156° |
| 2026-04-22 23:32 | 53.15606 | 158.45905 | 143 ft | 19 kts | 195° |
| 2026-04-22 23:32 | 53.15536 | 158.45931 | 143 ft | 2 kts | 124° |
| 2026-04-22 23:32 | 53.15532 | 158.45961 | 143 ft | 3 kts | 98° |
| 2026-04-22 23:32 | 53.15536 | 158.45991 | 143 ft | 2 kts | 68° |
| 2026-04-22 23:33 | 53.15543 | 158.46000 | 143 ft | 2 kts | 41° |
| 2026-04-22 23:33 | 53.15559 | 158.46003 | 143 ft | 2 kts | 359° |
| 2026-04-22 23:33 | 53.15596 | 158.45987 | 143 ft | 9 kts | 344° |
| 2026-04-22 23:33 | 53.15647 | 158.45954 | 143 ft | 0 kts | 337° |
| 2026-04-22 23:34 | 53.15652 | 158.45950 | 143 ft | 4 kts | 337° |
| 2026-04-22 23:34 | 53.15814 | 158.45836 | 145 ft | 61 kts | 338° |
| 2026-04-22 23:34 | 53.16486 | 158.45377 | 141 ft | 146 kts | 337° |
| 2026-04-22 23:34 | 53.17635 | 158.44579 | 218 ft | 203 kts | 337° |
| 2026-04-22 23:35 | 53.18952 | 158.43633 | 950 ft | 205 kts | 336° |
| 2026-04-22 23:35 | 53.20234 | 158.42707 | 2091 ft | 197 kts | 336° |
| 2026-04-22 23:35 | 53.21570 | 158.41747 | 2614 ft | 223 kts | 336° |
| 2026-04-22 23:35 | 53.23094 | 158.40655 | 2990 ft | 254 kts | 336° |
| 2026-04-22 23:36 | 53.24721 | 158.39498 | 4298 ft | 251 kts | 337° |
| 2026-04-22 23:36 | 53.26345 | 158.38342 | 5577 ft | 257 kts | 337° |
| 2026-04-22 23:36 | 53.27998 | 158.37160 | 6641 ft | 261 kts | 337° |
| 2026-04-22 23:36 | 53.29682 | 158.35955 | 7618 ft | 265 kts | 338° |
| 2026-04-22 23:37 | 53.31386 | 158.34737 | 8606 ft | 269 kts | 338° |
| 2026-04-22 23:37 | 53.33127 | 158.33490 | 9594 ft | 274 kts | 338° |
| 2026-04-22 23:37 | 53.34867 | 158.32209 | 10341 ft | 285 kts | 332° |
| 2026-04-22 23:37 | 53.36632 | 158.30382 | 10658 ft | 312 kts | 328° |
| 2026-04-22 23:38 | 53.38574 | 158.28318 | 10972 ft | 336 kts | 328° |
| 2026-04-22 23:38 | 53.40526 | 158.26258 | 11960 ft | 337 kts | 329° |
| 2026-04-22 23:38 | 53.42530 | 158.24150 | 12816 ft | 343 kts | 329° |
| 2026-04-22 23:38 | 53.44560 | 158.22010 | 13682 ft | 347 kts | 329° |
| 2026-04-22 23:39 | 53.46615 | 158.19838 | 14428 ft | 352 kts | 329° |
| 2026-04-22 23:39 | 53.48696 | 158.17634 | 15174 ft | 356 kts | 329° |
| 2026-04-22 23:39 | 53.50801 | 158.15404 | 15908 ft | 360 kts | 329° |
| 2026-04-22 23:39 | 53.52929 | 158.13148 | 16629 ft | 364 kts | 329° |
| 2026-04-22 23:40 | 53.55082 | 158.10862 | 17337 ft | 368 kts | 329° |
| 2026-04-22 23:40 | 53.57254 | 158.08551 | 18029 ft | 372 kts | 329° |
| 2026-04-22 23:40 | 53.59457 | 158.06206 | 18640 ft | 376 kts | 330° |
| 2026-04-22 23:40 | 53.61674 | 158.03843 | 19262 ft | 379 kts | 330° |
| 2026-04-22 23:41 | 53.63912 | 158.01455 | 19854 ft | 382 kts | 330° |
| 2026-04-22 23:41 | 53.66173 | 157.99062 | 20426 ft | 385 kts | 333° |
| 2026-04-22 23:41 | 53.68519 | 157.96869 | 20990 ft | 388 kts | 333° |
| 2026-04-22 23:41 | 53.70869 | 157.94585 | 21558 ft | 391 kts | 332° |
| 2026-04-22 23:42 | 53.73236 | 157.92283 | 22112 ft | 394 kts | 333° |
| 2026-04-22 23:42 | 53.75633 | 157.89995 | 22645 ft | 398 kts | 333° |
| 2026-04-22 23:42 | 53.78053 | 157.87690 | 23166 ft | 401 kts | 333° |
| 2026-04-22 23:42 | 53.80482 | 157.85344 | 23626 ft | 404 kts | 332° |
| 2026-04-22 23:43 | 53.82920 | 157.82949 | 24062 ft | 407 kts | 333° |
| 2026-04-22 23:43 | 53.85381 | 157.80535 | 24454 ft | 409 kts | 333° |
| 2026-04-22 23:43 | 53.87856 | 157.78123 | 24883 ft | 412 kts | 333° |
| 2026-04-22 23:43 | 53.90344 | 157.75694 | 25269 ft | 414 kts | 333° |
| 2026-04-22 23:44 | 53.92848 | 157.73238 | 25661 ft | 417 kts | 333° |
| 2026-04-22 23:44 | 53.95362 | 157.70765 | 26054 ft | 419 kts | 333° |
| 2026-04-22 23:44 | 53.97897 | 157.68275 | 26440 ft | 422 kts | 333° |
| 2026-04-22 23:44 | 54.00440 | 157.65774 | 26837 ft | 424 kts | 333° |
| 2026-04-22 23:45 | 54.03005 | 157.63244 | 27225 ft | 427 kts | 333° |
| 2026-04-22 23:45 | 54.05581 | 157.60701 | 27617 ft | 430 kts | 333° |
| 2026-04-22 23:45 | 54.08169 | 157.58143 | 28020 ft | 432 kts | 333° |
| 2026-04-22 23:45 | 54.10775 | 157.55562 | 28393 ft | 434 kts | 333° |
| 2026-04-22 23:46 | 54.13399 | 157.52970 | 28767 ft | 437 kts | 334° |
| 2026-04-22 23:46 | 54.16005 | 157.50410 | 29136 ft | 439 kts | 334° |
| 2026-04-22 23:46 | 54.18695 | 157.47762 | 29520 ft | 441 kts | 334° |
| 2026-04-22 23:46 | 54.21358 | 157.45126 | 29869 ft | 444 kts | 334° |
| 2026-04-22 23:47 | 54.24036 | 157.42470 | 30190 ft | 446 kts | 334° |
| 2026-04-22 23:47 | 54.26694 | 157.39834 | 30484 ft | 448 kts | 333° |
| 2026-04-22 23:47 | 54.29396 | 157.37154 | 30798 ft | 450 kts | 333° |
| 2026-04-22 23:47 | 54.32114 | 157.34451 | 31081 ft | 452 kts | 333° |
| 2026-04-22 23:48 | 54.34841 | 157.31733 | 31387 ft | 454 kts | 333° |
| 2026-04-22 23:48 | 54.37581 | 157.28999 | 31690 ft | 456 kts | 333° |
| 2026-04-22 23:48 | 54.40328 | 157.26255 | 31985 ft | 458 kts | 333° |
| 2026-04-22 23:48 | 54.43091 | 157.23490 | 32266 ft | 461 kts | 333° |
| 2026-04-22 23:49 | 54.45866 | 157.20708 | 32556 ft | 462 kts | 333° |
| 2026-04-22 23:49 | 54.48649 | 157.17913 | 32841 ft | 465 kts | 333° |
| 2026-04-22 23:49 | 54.51444 | 157.15103 | 33142 ft | 466 kts | 332° |
| 2026-04-22 23:49 | 54.54249 | 157.12278 | 33395 ft | 468 kts | 332° |
| 2026-04-22 23:50 | 54.57067 | 157.09434 | 33691 ft | 470 kts | 332° |
| 2026-04-22 23:50 | 54.59894 | 157.06579 | 33947 ft | 472 kts | 332° |
| 2026-04-22 23:50 | 54.62736 | 157.03702 | 34175 ft | 474 kts | 332° |
| 2026-04-22 23:50 | 54.65578 | 157.00821 | 34458 ft | 474 kts | 332° |
| 2026-04-22 23:51 | 54.68424 | 156.97930 | 34730 ft | 475 kts | 332° |
| 2026-04-22 23:51 | 54.71275 | 156.95033 | 35020 ft | 476 kts | 332° |
| 2026-04-22 23:51 | 54.74129 | 156.92126 | 35284 ft | 477 kts | 332° |
| 2026-04-22 23:51 | 54.76989 | 156.89208 | 35560 ft | 478 kts | 331° |
| 2026-04-22 23:52 | 54.79856 | 156.86277 | 35850 ft | 479 kts | 331° |
| 2026-04-22 23:52 | 54.82739 | 156.83326 | 35853 ft | 483 kts | 331° |
| 2026-04-22 23:52 | 54.88498 | 156.77415 | 35851 ft | 479 kts | 331° |
| 2026-04-22 23:53 | 54.94225 | 156.71526 | 35858 ft | 478 kts | 331° |
| 2026-04-22 23:53 | 54.99942 | 156.65622 | 35861 ft | 478 kts | 331° |
| 2026-04-22 23:54 | 55.05656 | 156.59686 | 35864 ft | 478 kts | 331° |
| 2026-04-22 23:54 | 55.11368 | 156.53739 | 35868 ft | 478 kts | 331° |
| 2026-04-22 23:55 | 55.17071 | 156.47784 | 35867 ft | 478 kts | 331° |
| 2026-04-22 23:55 | 55.22778 | 156.41825 | 35866 ft | 477 kts | 331° |
| 2026-04-22 23:56 | 55.28466 | 156.35855 | 35877 ft | 477 kts | 331° |
| 2026-04-22 23:56 | 55.34125 | 156.29901 | 35879 ft | 477 kts | 331° |
| 2026-04-22 23:57 | 55.39852 | 156.23852 | 35890 ft | 477 kts | 330° |
| 2026-04-22 23:57 | 55.45534 | 156.17798 | 35885 ft | 477 kts | 330° |
| 2026-04-22 23:58 | 55.51174 | 156.11769 | 35892 ft | 477 kts | 330° |
| 2026-04-22 23:58 | 55.56843 | 156.05688 | 35895 ft | 476 kts | 330° |
| 2026-04-22 23:59 | 55.62505 | 155.99593 | 35894 ft | 476 kts | 330° |
| 2026-04-22 23:59 | 55.68151 | 155.93495 | 35902 ft | 475 kts | 330° |
| 2026-04-23 00:00 | 55.75650 | 155.85363 | 35901 ft | 474 kts | 330° |
| 2026-04-23 00:01 | 55.82224 | 155.78203 | 35906 ft | 474 kts | 330° |
| 2026-04-23 00:01 | 55.87843 | 155.72060 | 35904 ft | 473 kts | 330° |
| 2026-04-23 00:02 | 55.92508 | 155.66944 | 35920 ft | 474 kts | 330° |
| 2026-04-23 00:02 | 55.98116 | 155.60776 | 35915 ft | 474 kts | 330° |
| 2026-04-23 00:03 | 56.03726 | 155.54583 | 35918 ft | 474 kts | 330° |
| 2026-04-23 00:03 | 56.09330 | 155.48375 | 35920 ft | 473 kts | 330° |
| 2026-04-23 00:04 | 56.14921 | 155.42161 | 35925 ft | 473 kts | 330° |
| 2026-04-23 00:04 | 56.20507 | 155.35951 | 35932 ft | 471 kts | 330° |
| 2026-04-23 00:05 | 56.26114 | 155.29866 | 35929 ft | 470 kts | 330° |
| 2026-04-23 00:05 | 56.31687 | 155.23709 | 35930 ft | 470 kts | 330° |
| 2026-04-23 00:06 | 56.37262 | 155.17574 | 35937 ft | 468 kts | 330° |
| 2026-04-23 00:06 | 56.42808 | 155.11429 | 35943 ft | 468 kts | 330° |
| 2026-04-23 00:07 | 56.48347 | 155.05276 | 35944 ft | 467 kts | 330° |
| 2026-04-23 00:07 | 56.53870 | 154.99120 | 35952 ft | 466 kts | 330° |
| 2026-04-23 00:08 | 56.59391 | 154.92945 | 35955 ft | 466 kts | 330° |
| 2026-04-23 00:08 | 56.64915 | 154.86745 | 35962 ft | 466 kts | 330° |
| 2026-04-23 00:09 | 56.70426 | 154.80535 | 35965 ft | 466 kts | 330° |
| 2026-04-23 00:09 | 56.75937 | 154.74308 | 35970 ft | 467 kts | 330° |
| 2026-04-23 00:10 | 56.81448 | 154.68054 | 35973 ft | 467 kts | 330° |
| 2026-04-23 00:10 | 56.86957 | 154.61786 | 35978 ft | 467 kts | 330° |
| 2026-04-23 00:11 | 56.92467 | 154.55490 | 35987 ft | 467 kts | 330° |
| 2026-04-23 00:11 | 56.97965 | 154.49189 | 35987 ft | 466 kts | 330° |
| 2026-04-23 00:12 | 57.03465 | 154.42861 | 35987 ft | 466 kts | 330° |
| 2026-04-23 00:12 | 57.08923 | 154.36560 | 35987 ft | 466 kts | 330° |
| 2026-04-23 00:13 | 57.14451 | 154.30155 | 35997 ft | 466 kts | 330° |
| 2026-04-23 00:13 | 57.19836 | 154.23633 | 36030 ft | 468 kts | 322° |
| 2026-04-23 00:14 | 57.24534 | 154.15243 | 36025 ft | 471 kts | 317° |
| 2026-04-23 00:14 | 57.29160 | 154.06646 | 36032 ft | 472 kts | 317° |
| 2026-04-23 00:15 | 57.33800 | 153.98014 | 36363 ft | 474 kts | 317° |
| 2026-04-23 00:15 | 57.36122 | 153.93676 | 36624 ft | 475 kts | 317° |
| 2026-04-23 00:15 | 57.38449 | 153.89321 | 36907 ft | 476 kts | 317° |
| 2026-04-23 00:15 | 57.40777 | 153.84959 | 37177 ft | 477 kts | 317° |
| 2026-04-23 00:16 | 57.43110 | 153.80578 | 37459 ft | 478 kts | 317° |
| 2026-04-23 00:16 | 57.45445 | 153.76184 | 37724 ft | 479 kts | 317° |
| 2026-04-23 00:16 | 57.47786 | 153.71771 | 37998 ft | 479 kts | 317° |
| 2026-04-23 00:17 | 57.52471 | 153.62914 | 38038 ft | 483 kts | 317° |
| 2026-04-23 00:17 | 57.57118 | 153.54089 | 38036 ft | 480 kts | 317° |
| 2026-04-23 00:18 | 57.61787 | 153.45194 | 38048 ft | 479 kts | 316° |
| 2026-04-23 00:18 | 57.66442 | 153.36289 | 38061 ft | 479 kts | 316° |
| 2026-04-23 00:19 | 57.71096 | 153.27355 | 38064 ft | 480 kts | 316° |
| 2026-04-23 00:19 | 57.75734 | 153.18492 | 38060 ft | 480 kts | 316° |
| 2026-04-23 00:20 | 57.80384 | 153.09539 | 38051 ft | 479 kts | 316° |
| 2026-04-23 00:20 | 57.85036 | 153.00561 | 38066 ft | 480 kts | 316° |
| 2026-04-23 00:21 | 57.89675 | 152.91564 | 38067 ft | 479 kts | 316° |
| 2026-04-23 00:21 | 57.94309 | 152.82546 | 38067 ft | 480 kts | 316° |
| 2026-04-23 00:22 | 57.98942 | 152.73493 | 38072 ft | 480 kts | 316° |
| 2026-04-23 00:22 | 58.03558 | 152.64394 | 38074 ft | 480 kts | 316° |
| 2026-04-23 00:23 | 58.08156 | 152.55239 | 38072 ft | 480 kts | 316° |
| 2026-04-23 00:23 | 58.12747 | 152.46099 | 38077 ft | 479 kts | 316° |
| 2026-04-23 00:24 | 58.17331 | 152.36918 | 38078 ft | 480 kts | 316° |
| 2026-04-23 00:24 | 58.21915 | 152.27715 | 38076 ft | 480 kts | 315° |
| 2026-04-23 00:25 | 58.26489 | 152.18487 | 38087 ft | 480 kts | 315° |
| 2026-04-23 00:25 | 58.31068 | 152.09226 | 38083 ft | 481 kts | 316° |
| 2026-04-23 00:26 | 58.35649 | 151.99957 | 38080 ft | 480 kts | 315° |
| 2026-04-23 00:26 | 58.40187 | 151.90719 | 38087 ft | 481 kts | 315° |
| 2026-04-23 00:27 | 58.44783 | 151.81333 | 38085 ft | 481 kts | 315° |
| 2026-04-23 00:27 | 58.49310 | 151.72047 | 38089 ft | 481 kts | 315° |
| 2026-04-23 00:28 | 58.53862 | 151.62675 | 38083 ft | 481 kts | 315° |
| 2026-04-23 00:28 | 58.58410 | 151.53270 | 38079 ft | 480 kts | 315° |
| 2026-04-23 00:29 | 58.62940 | 151.43864 | 38084 ft | 480 kts | 315° |
| 2026-04-23 00:29 | 58.67463 | 151.34435 | 38077 ft | 480 kts | 315° |
| 2026-04-23 00:30 | 58.71979 | 151.24979 | 38081 ft | 480 kts | 315° |
| 2026-04-23 00:30 | 58.76490 | 151.15497 | 38080 ft | 480 kts | 315° |
| 2026-04-23 00:31 | 58.80988 | 151.05999 | 38080 ft | 480 kts | 315° |
| 2026-04-23 00:31 | 58.85480 | 150.96458 | 38082 ft | 480 kts | 315° |
| 2026-04-23 00:32 | 58.89958 | 150.86914 | 38085 ft | 480 kts | 314° |
| 2026-04-23 00:32 | 58.94439 | 150.77321 | 38085 ft | 481 kts | 314° |
| 2026-04-23 00:33 | 58.98919 | 150.67692 | 38090 ft | 480 kts | 314° |
| 2026-04-23 00:33 | 59.03382 | 150.58059 | 38086 ft | 480 kts | 314° |
| 2026-04-23 00:34 | 59.07842 | 150.48392 | 38092 ft | 480 kts | 314° |
| 2026-04-23 00:34 | 59.12291 | 150.38706 | 38092 ft | 480 kts | 314° |
| 2026-04-23 00:35 | 59.16731 | 150.29001 | 38088 ft | 480 kts | 314° |
| 2026-04-23 00:35 | 59.21176 | 150.19244 | 38086 ft | 481 kts | 314° |
| 2026-04-23 00:36 | 59.25614 | 150.09467 | 38084 ft | 481 kts | 314° |
| 2026-04-23 00:36 | 59.30050 | 149.99662 | 38089 ft | 481 kts | 314° |
| 2026-04-23 00:37 | 59.34475 | 149.89835 | 38088 ft | 481 kts | 314° |
| 2026-04-23 00:37 | 59.38900 | 149.79970 | 38084 ft | 482 kts | 314° |
| 2026-04-23 00:38 | 59.43321 | 149.70068 | 38077 ft | 482 kts | 314° |
| 2026-04-23 00:38 | 59.47729 | 149.60153 | 38087 ft | 481 kts | 314° |
| 2026-04-23 00:39 | 59.52126 | 149.50219 | 38086 ft | 481 kts | 314° |
| 2026-04-23 00:39 | 59.56479 | 149.40345 | 38088 ft | 481 kts | 313° |
| 2026-04-23 00:40 | 59.60863 | 149.30355 | 38093 ft | 482 kts | 313° |
| 2026-04-23 00:40 | 59.65249 | 149.20317 | 38094 ft | 483 kts | 313° |
| 2026-04-23 00:41 | 59.68880 | 149.09110 | 38150 ft | 490 kts | 296° |
| 2026-04-23 00:41 | 59.71520 | 148.96652 | 38113 ft | 491 kts | 295° |
| 2026-04-23 00:42 | 59.74134 | 148.84163 | 38113 ft | 490 kts | 295° |
| 2026-04-23 00:42 | 59.76754 | 148.71653 | 38103 ft | 491 kts | 295° |
| 2026-04-23 00:43 | 59.79348 | 148.59118 | 38100 ft | 491 kts | 295° |
| 2026-04-23 00:43 | 59.81939 | 148.46575 | 38106 ft | 491 kts | 295° |
| 2026-04-23 00:44 | 59.84513 | 148.34003 | 38106 ft | 491 kts | 295° |
| 2026-04-23 00:44 | 59.87081 | 148.21405 | 38119 ft | 492 kts | 294° |
| 2026-04-23 00:45 | 59.89636 | 148.08775 | 38120 ft | 492 kts | 294° |
| 2026-04-23 00:45 | 59.92181 | 147.96125 | 38120 ft | 492 kts | 294° |
| 2026-04-23 00:46 | 59.94716 | 147.83444 | 38113 ft | 492 kts | 294° |
| 2026-04-23 00:46 | 59.97237 | 147.70751 | 38123 ft | 492 kts | 294° |
| 2026-04-23 00:47 | 59.99751 | 147.58010 | 38122 ft | 493 kts | 294° |
| 2026-04-23 00:47 | 60.02252 | 147.45258 | 38120 ft | 493 kts | 294° |
| 2026-04-23 00:48 | 60.04741 | 147.32481 | 38123 ft | 493 kts | 294° |
| 2026-04-23 00:48 | 60.07222 | 147.19663 | 38123 ft | 494 kts | 294° |
| 2026-04-23 00:49 | 60.09690 | 147.06832 | 38128 ft | 494 kts | 293° |
| 2026-04-23 00:49 | 60.12146 | 146.93976 | 38119 ft | 493 kts | 293° |
| 2026-04-23 00:50 | 60.14177 | 146.83287 | 38124 ft | 494 kts | 293° |
| 2026-04-23 00:50 | 60.17003 | 146.68304 | 38129 ft | 494 kts | 293° |
| 2026-04-23 00:51 | 60.19425 | 146.55374 | 38123 ft | 495 kts | 293° |
| 2026-04-23 00:51 | 60.21445 | 146.44520 | 38126 ft | 495 kts | 292° |
| 2026-04-23 00:52 | 60.23847 | 146.31542 | 38125 ft | 495 kts | 292° |
| 2026-04-23 00:52 | 60.26239 | 146.18526 | 38124 ft | 496 kts | 292° |
| 2026-04-23 00:53 | 60.28620 | 146.05481 | 38126 ft | 496 kts | 292° |
| 2026-04-23 00:53 | 60.30990 | 145.92410 | 38123 ft | 497 kts | 292° |
| 2026-04-23 00:54 | 60.33319 | 145.79270 | 38130 ft | 497 kts | 291° |
| 2026-04-23 00:54 | 60.35642 | 145.66111 | 38134 ft | 498 kts | 292° |
| 2026-04-23 00:55 | 60.37937 | 145.53017 | 38141 ft | 498 kts | 291° |
| 2026-04-23 00:55 | 60.40236 | 145.39790 | 38136 ft | 498 kts | 291° |
| 2026-04-23 00:56 | 60.42522 | 145.26566 | 38136 ft | 498 kts | 291° |
| 2026-04-23 00:56 | 60.44794 | 145.13308 | 38140 ft | 498 kts | 291° |
| 2026-04-23 00:57 | 60.47051 | 145.00055 | 38141 ft | 498 kts | 291° |
| 2026-04-23 00:57 | 60.49296 | 144.86769 | 38139 ft | 498 kts | 291° |
| 2026-04-23 00:58 | 60.51533 | 144.73442 | 38142 ft | 498 kts | 291° |
| 2026-04-23 00:58 | 60.53754 | 144.60109 | 38137 ft | 499 kts | 290° |
| 2026-04-23 00:59 | 60.55964 | 144.46743 | 38134 ft | 499 kts | 290° |
| 2026-04-23 00:59 | 60.58161 | 144.33356 | 38129 ft | 499 kts | 290° |
| 2026-04-23 01:00 | 60.60346 | 144.19957 | 38137 ft | 500 kts | 290° |
| 2026-04-23 01:00 | 60.62535 | 144.06523 | 38147 ft | 500 kts | 290° |
| 2026-04-23 01:01 | 60.64702 | 143.93081 | 38141 ft | 499 kts | 290° |
| 2026-04-23 01:01 | 60.66861 | 143.79615 | 38136 ft | 500 kts | 290° |
| 2026-04-23 01:02 | 60.69006 | 143.66112 | 38145 ft | 500 kts | 290° |
| 2026-04-23 01:02 | 60.71137 | 143.52602 | 38135 ft | 500 kts | 289° |
| 2026-04-23 01:03 | 60.73253 | 143.39085 | 38135 ft | 499 kts | 289° |
| 2026-04-23 01:03 | 60.75353 | 143.25564 | 38143 ft | 499 kts | 289° |
| 2026-04-23 01:04 | 60.77441 | 143.12018 | 38144 ft | 499 kts | 289° |
| 2026-04-23 01:04 | 60.80540 | 142.91678 | 38157 ft | 499 kts | 289° |
| 2026-04-23 01:05 | 60.82592 | 142.78082 | 38162 ft | 499 kts | 289° |
| 2026-04-23 01:05 | 60.84629 | 142.64467 | 38165 ft | 499 kts | 289° |
| 2026-04-23 01:06 | 60.86652 | 142.50844 | 38172 ft | 499 kts | 288° |
| 2026-04-23 01:06 | 60.88659 | 142.37215 | 38175 ft | 500 kts | 288° |
| 2026-04-23 01:07 | 60.90647 | 142.23610 | 38177 ft | 501 kts | 288° |
| 2026-04-23 01:07 | 60.92632 | 142.09908 | 38177 ft | 500 kts | 288° |
| 2026-04-23 01:08 | 60.94600 | 141.96207 | 38179 ft | 500 kts | 288° |
| 2026-04-23 01:08 | 60.96558 | 141.82471 | 38183 ft | 500 kts | 288° |
| 2026-04-23 01:09 | 60.98502 | 141.68713 | 38176 ft | 500 kts | 288° |
| 2026-04-23 01:09 | 61.00431 | 141.54943 | 38165 ft | 501 kts | 287° |
| 2026-04-23 01:10 | 61.02351 | 141.41123 | 38156 ft | 501 kts | 287° |
| 2026-04-23 01:10 | 61.04256 | 141.27299 | 38158 ft | 501 kts | 287° |
| 2026-04-23 01:11 | 61.06146 | 141.13454 | 38150 ft | 501 kts | 287° |
| 2026-04-23 01:11 | 61.08026 | 140.99566 | 38147 ft | 502 kts | 287° |
| 2026-04-23 01:12 | 61.09893 | 140.85654 | 38152 ft | 503 kts | 287° |
| 2026-04-23 01:12 | 61.11745 | 140.71722 | 38151 ft | 503 kts | 287° |
| 2026-04-23 01:13 | 61.13585 | 140.57764 | 38155 ft | 503 kts | 287° |
| 2026-04-23 01:13 | 61.15412 | 140.43779 | 38168 ft | 503 kts | 286° |
| 2026-04-23 01:14 | 61.17228 | 140.29778 | 38167 ft | 504 kts | 286° |
| 2026-04-23 01:14 | 61.19031 | 140.15740 | 38172 ft | 504 kts | 286° |
| 2026-04-23 01:15 | 61.20820 | 140.01679 | 38172 ft | 505 kts | 286° |
| 2026-04-23 01:15 | 61.22597 | 139.87589 | 38174 ft | 504 kts | 286° |
| 2026-04-23 01:16 | 61.24357 | 139.73499 | 38178 ft | 504 kts | 285° |
| 2026-04-23 01:16 | 61.26103 | 139.59386 | 38171 ft | 504 kts | 285° |
| 2026-04-23 01:17 | 61.27833 | 139.45270 | 38171 ft | 504 kts | 285° |
| 2026-04-23 01:17 | 61.29549 | 139.31136 | 38167 ft | 504 kts | 285° |
| 2026-04-23 01:18 | 61.31252 | 139.16974 | 38165 ft | 504 kts | 285° |
| 2026-04-23 01:18 | 61.32938 | 139.02812 | 38161 ft | 504 kts | 285° |
| 2026-04-23 01:19 | 61.34609 | 138.88632 | 38166 ft | 505 kts | 285° |
| 2026-04-23 01:19 | 61.36268 | 138.74420 | 38159 ft | 505 kts | 284° |
| 2026-04-23 01:20 | 61.37903 | 138.60269 | 38158 ft | 505 kts | 284° |
| 2026-04-23 01:20 | 61.39534 | 138.46015 | 38156 ft | 505 kts | 284° |
| 2026-04-23 01:21 | 61.41150 | 138.31733 | 38161 ft | 505 kts | 284° |
| 2026-04-23 01:21 | 61.42752 | 138.17448 | 38158 ft | 506 kts | 284° |
| 2026-04-23 01:22 | 61.44338 | 138.03138 | 38149 ft | 506 kts | 284° |
| 2026-04-23 01:22 | 61.45912 | 137.88795 | 38153 ft | 506 kts | 284° |
| 2026-04-23 01:23 | 61.47471 | 137.74439 | 38156 ft | 506 kts | 284° |
| 2026-04-23 01:23 | 61.49015 | 137.60058 | 38159 ft | 507 kts | 283° |
| 2026-04-23 01:24 | 61.50547 | 137.45647 | 38156 ft | 507 kts | 283° |
| 2026-04-23 01:24 | 61.52061 | 137.31238 | 38158 ft | 507 kts | 283° |
| 2026-04-23 01:25 | 61.53561 | 137.16809 | 38157 ft | 507 kts | 283° |
| 2026-04-23 01:25 | 61.55048 | 137.02341 | 38157 ft | 508 kts | 283° |
| 2026-04-23 01:26 | 61.56519 | 136.87864 | 38161 ft | 508 kts | 283° |
| 2026-04-23 01:26 | 61.57967 | 136.73459 | 38157 ft | 508 kts | 283° |
| 2026-04-23 01:27 | 61.59417 | 136.58858 | 38159 ft | 508 kts | 282° |
| 2026-04-23 01:27 | 61.60834 | 136.44433 | 38160 ft | 508 kts | 282° |
| 2026-04-23 01:28 | 61.62245 | 136.29887 | 38161 ft | 508 kts | 282° |
| 2026-04-23 01:28 | 61.63640 | 136.15332 | 38168 ft | 507 kts | 282° |
| 2026-04-23 01:29 | 61.65019 | 136.00782 | 38168 ft | 507 kts | 282° |
| 2026-04-23 01:29 | 61.66380 | 135.86218 | 38174 ft | 507 kts | 282° |
| 2026-04-23 01:30 | 61.67723 | 135.71653 | 38177 ft | 507 kts | 281° |
| 2026-04-23 01:30 | 61.69054 | 135.57057 | 38181 ft | 508 kts | 281° |
| 2026-04-23 01:31 | 61.70369 | 135.42440 | 38184 ft | 507 kts | 281° |
| 2026-04-23 01:31 | 61.71668 | 135.27824 | 38189 ft | 507 kts | 281° |
| 2026-04-23 01:32 | 61.72951 | 135.13192 | 38193 ft | 508 kts | 281° |
| 2026-04-23 01:32 | 61.74260 | 134.98549 | 38190 ft | 508 kts | 281° |
| 2026-04-23 01:33 | 61.75545 | 134.83882 | 38189 ft | 508 kts | 281° |
| 2026-04-23 01:33 | 61.76818 | 134.69183 | 38190 ft | 509 kts | 281° |
| 2026-04-23 01:34 | 61.78076 | 134.54472 | 38199 ft | 509 kts | 281° |
| 2026-04-23 01:34 | 61.79315 | 134.39768 | 38194 ft | 508 kts | 280° |
| 2026-04-23 01:35 | 61.80539 | 134.25063 | 38189 ft | 507 kts | 280° |
| 2026-04-23 01:35 | 61.81744 | 134.10371 | 38188 ft | 507 kts | 280° |
| 2026-04-23 01:36 | 61.82934 | 133.95673 | 38190 ft | 507 kts | 280° |
| 2026-04-23 01:36 | 61.83910 | 133.83456 | 38189 ft | 506 kts | 279° |
| 2026-04-23 01:37 | 61.85069 | 133.68761 | 38189 ft | 506 kts | 279° |
| 2026-04-23 01:37 | 61.86192 | 133.54054 | 38192 ft | 506 kts | 279° |
| 2026-04-23 01:38 | 61.87266 | 133.39308 | 38193 ft | 506 kts | 279° |
| 2026-04-23 01:38 | 61.88347 | 133.24586 | 38197 ft | 506 kts | 278° |
| 2026-04-23 01:39 | 61.89398 | 133.09820 | 38195 ft | 506 kts | 278° |
| 2026-04-23 01:39 | 61.90442 | 132.95060 | 38194 ft | 506 kts | 278° |
| 2026-04-23 01:40 | 61.91464 | 132.80292 | 38196 ft | 506 kts | 278° |
| 2026-04-23 01:40 | 61.92474 | 132.65522 | 38198 ft | 505 kts | 278° |
| 2026-04-23 01:41 | 61.93479 | 132.50759 | 38194 ft | 505 kts | 278° |
| 2026-04-23 01:41 | 61.94489 | 132.36008 | 38190 ft | 505 kts | 278° |
| 2026-04-23 01:42 | 61.95468 | 132.21244 | 38191 ft | 505 kts | 278° |
| 2026-04-23 01:42 | 61.96441 | 132.06479 | 38189 ft | 504 kts | 277° |
| 2026-04-23 01:43 | 61.97392 | 131.91690 | 38187 ft | 505 kts | 277° |
| 2026-04-23 01:43 | 61.98331 | 131.76904 | 38186 ft | 505 kts | 277° |
| 2026-04-23 01:44 | 61.99253 | 131.62094 | 38182 ft | 505 kts | 277° |
| 2026-04-23 01:44 | 62.00160 | 131.47267 | 38180 ft | 505 kts | 277° |
| 2026-04-23 01:45 | 62.01052 | 131.32424 | 38171 ft | 505 kts | 276° |
| 2026-04-23 01:45 | 62.01927 | 131.17578 | 38163 ft | 506 kts | 276° |
| 2026-04-23 01:46 | 62.02787 | 131.02713 | 38163 ft | 505 kts | 276° |
| 2026-04-23 01:46 | 62.03630 | 130.87855 | 38156 ft | 505 kts | 276° |
| 2026-04-23 01:47 | 62.04457 | 130.73000 | 38151 ft | 505 kts | 276° |
| 2026-04-23 01:47 | 62.05257 | 130.58133 | 38139 ft | 505 kts | 275° |
| 2026-04-23 01:48 | 62.06036 | 130.43273 | 38137 ft | 504 kts | 275° |
| 2026-04-23 01:48 | 62.06802 | 130.28430 | 38136 ft | 503 kts | 275° |
| 2026-04-23 01:49 | 62.07549 | 130.13591 | 38134 ft | 503 kts | 275° |
| 2026-04-23 01:49 | 62.08283 | 129.98735 | 38135 ft | 503 kts | 275° |
| 2026-04-23 01:50 | 62.08993 | 129.83985 | 38142 ft | 503 kts | 274° |
| 2026-04-23 01:50 | 62.10037 | 129.69213 | 38133 ft | 504 kts | 279° |
| 2026-04-23 01:51 | 62.11315 | 129.54492 | 38137 ft | 504 kts | 279° |
| 2026-04-23 01:51 | 62.12537 | 129.39763 | 38138 ft | 504 kts | 279° |
| 2026-04-23 01:52 | 62.13768 | 129.25024 | 38142 ft | 503 kts | 278° |
| 2026-04-23 01:52 | 62.14966 | 129.10304 | 38142 ft | 502 kts | 278° |
| 2026-04-23 01:53 | 62.16155 | 128.95586 | 38134 ft | 502 kts | 278° |
| 2026-04-23 01:53 | 62.17226 | 128.80814 | 38155 ft | 500 kts | 271° |
| 2026-04-23 01:54 | 62.17573 | 128.65925 | 38136 ft | 501 kts | 270° |
| 2026-04-23 01:54 | 62.17911 | 128.51035 | 38138 ft | 501 kts | 271° |
| 2026-04-23 01:55 | 62.18238 | 128.36170 | 38140 ft | 499 kts | 270° |
| 2026-04-23 01:55 | 62.18540 | 128.21324 | 38142 ft | 500 kts | 270° |
| 2026-04-23 01:56 | 62.18835 | 128.06444 | 38147 ft | 500 kts | 270° |
| 2026-04-23 01:56 | 62.19107 | 127.91577 | 38141 ft | 500 kts | 270° |
| 2026-04-23 01:57 | 62.19368 | 127.76712 | 38145 ft | 500 kts | 270° |
| 2026-04-23 01:57 | 62.19609 | 127.61943 | 38145 ft | 499 kts | 270° |
| 2026-04-23 01:58 | 62.19836 | 127.47107 | 38149 ft | 498 kts | 269° |
| 2026-04-23 01:58 | 62.20047 | 127.32282 | 38153 ft | 498 kts | 269° |
| 2026-04-23 01:59 | 62.20242 | 127.17447 | 38143 ft | 497 kts | 269° |
| 2026-04-23 01:59 | 62.20420 | 127.02648 | 38152 ft | 498 kts | 269° |
| 2026-04-23 02:00 | 62.20635 | 126.87804 | 38165 ft | 499 kts | 271° |
| 2026-04-23 02:00 | 62.21076 | 126.72981 | 38150 ft | 498 kts | 271° |
| 2026-04-23 02:01 | 62.21497 | 126.58139 | 38152 ft | 500 kts | 271° |
| 2026-04-23 02:01 | 62.21913 | 126.43262 | 38152 ft | 500 kts | 271° |
| 2026-04-23 02:02 | 62.22303 | 126.28392 | 38146 ft | 499 kts | 271° |
| 2026-04-23 02:02 | 62.22685 | 126.13537 | 38150 ft | 499 kts | 270° |
| 2026-04-23 02:03 | 62.23045 | 125.98671 | 38152 ft | 499 kts | 270° |
| 2026-04-23 02:03 | 62.23393 | 125.83818 | 38147 ft | 499 kts | 270° |
| 2026-04-23 02:04 | 62.23722 | 125.68963 | 38152 ft | 498 kts | 270° |
| 2026-04-23 02:04 | 62.24037 | 125.54131 | 38142 ft | 497 kts | 270° |
| 2026-04-23 02:05 | 62.24334 | 125.39292 | 38137 ft | 498 kts | 270° |
| 2026-04-23 02:05 | 62.24617 | 125.24457 | 38135 ft | 499 kts | 269° |
| 2026-04-23 02:06 | 62.24884 | 125.09603 | 38129 ft | 498 kts | 269° |
| 2026-04-23 02:06 | 62.25134 | 124.94742 | 38131 ft | 498 kts | 269° |
| 2026-04-23 02:07 | 62.25369 | 124.79874 | 38137 ft | 498 kts | 269° |
| 2026-04-23 02:07 | 62.25587 | 124.65103 | 38143 ft | 499 kts | 269° |
| 2026-04-23 02:08 | 62.25790 | 124.50228 | 38135 ft | 498 kts | 269° |
| 2026-04-23 02:08 | 62.25977 | 124.35377 | 38141 ft | 497 kts | 268° |
| 2026-04-23 02:09 | 62.26148 | 124.20541 | 38140 ft | 498 kts | 268° |
| 2026-04-23 02:09 | 62.26304 | 124.05692 | 38141 ft | 498 kts | 268° |
| 2026-04-23 02:10 | 62.26443 | 123.90825 | 38134 ft | 498 kts | 268° |
| 2026-04-23 02:10 | 62.26567 | 123.75971 | 38134 ft | 498 kts | 268° |
| 2026-04-23 02:11 | 62.26679 | 123.61129 | 38138 ft | 497 kts | 268° |
| 2026-04-23 02:11 | 62.26775 | 123.46280 | 38139 ft | 498 kts | 268° |
| 2026-04-23 02:12 | 62.26855 | 123.31406 | 38133 ft | 498 kts | 267° |
| 2026-04-23 02:12 | 62.26919 | 123.16514 | 38127 ft | 499 kts | 267° |
| 2026-04-23 02:13 | 62.26968 | 123.01653 | 38126 ft | 498 kts | 267° |
| 2026-04-23 02:13 | 62.27000 | 122.86771 | 38129 ft | 498 kts | 267° |
| 2026-04-23 02:14 | 62.27017 | 122.71881 | 38119 ft | 499 kts | 266° |
| 2026-04-23 02:14 | 62.27017 | 122.56983 | 38128 ft | 500 kts | 266° |
| 2026-04-23 02:15 | 62.26988 | 122.34608 | 38117 ft | 499 kts | 266° |
| 2026-04-23 02:16 | 62.26948 | 122.19684 | 38116 ft | 500 kts | 266° |
| 2026-04-23 02:16 | 62.26893 | 122.04749 | 38125 ft | 501 kts | 265° |
| 2026-04-23 02:17 | 62.26822 | 121.89804 | 38125 ft | 501 kts | 265° |
| 2026-04-23 02:17 | 62.26734 | 121.74827 | 38119 ft | 502 kts | 265° |
| 2026-04-23 02:18 | 62.26630 | 121.59828 | 38117 ft | 503 kts | 265° |
| 2026-04-23 02:18 | 62.26510 | 121.44930 | 38119 ft | 503 kts | 265° |
| 2026-04-23 02:19 | 62.26374 | 121.29911 | 38108 ft | 503 kts | 264° |
| 2026-04-23 02:19 | 62.26221 | 121.14884 | 38112 ft | 504 kts | 264° |
| 2026-04-23 02:20 | 62.26052 | 120.99858 | 38113 ft | 504 kts | 264° |
| 2026-04-23 02:20 | 62.25866 | 120.84835 | 38108 ft | 504 kts | 264° |
| 2026-04-23 02:21 | 62.25665 | 120.69795 | 38110 ft | 505 kts | 264° |
| 2026-04-23 02:21 | 62.25446 | 120.54747 | 38106 ft | 505 kts | 263° |
| 2026-04-23 02:22 | 62.25212 | 120.39694 | 38114 ft | 505 kts | 263° |
| 2026-04-23 02:22 | 62.24961 | 120.24635 | 38115 ft | 505 kts | 263° |
| 2026-04-23 02:23 | 62.24740 | 120.12124 | 38121 ft | 505 kts | 263° |
| 2026-04-23 02:23 | 62.24459 | 119.97089 | 38117 ft | 505 kts | 263° |
| 2026-04-23 02:24 | 62.24111 | 119.79516 | 38112 ft | 504 kts | 262° |
| 2026-04-23 02:24 | 62.23850 | 119.67034 | 38114 ft | 504 kts | 262° |
| 2026-04-23 02:25 | 62.23521 | 119.52036 | 38112 ft | 503 kts | 262° |
| 2026-04-23 02:25 | 62.23176 | 119.37044 | 38112 ft | 503 kts | 262° |
| 2026-04-23 02:26 | 62.22815 | 119.22063 | 38112 ft | 503 kts | 262° |
| 2026-04-23 02:26 | 62.22451 | 119.07083 | 38117 ft | 503 kts | 262° |
| 2026-04-23 02:27 | 62.22096 | 118.92107 | 38115 ft | 503 kts | 262° |
| 2026-04-23 02:27 | 62.21707 | 118.77137 | 38119 ft | 503 kts | 262° |
| 2026-04-23 02:28 | 62.21314 | 118.62190 | 38106 ft | 503 kts | 262° |
| 2026-04-23 02:28 | 62.20897 | 118.47237 | 38101 ft | 502 kts | 261° |
| 2026-04-23 02:29 | 62.20471 | 118.32379 | 38110 ft | 502 kts | 261° |
| 2026-04-23 02:29 | 62.20021 | 118.17325 | 38113 ft | 503 kts | 261° |
| 2026-04-23 02:30 | 62.19562 | 118.02483 | 38111 ft | 503 kts | 261° |
| 2026-04-23 02:30 | 62.19080 | 117.87428 | 38111 ft | 503 kts | 261° |
| 2026-04-23 02:31 | 62.18589 | 117.72586 | 38112 ft | 503 kts | 261° |
| 2026-04-23 02:31 | 62.17941 | 117.57697 | 38117 ft | 502 kts | 259° |
| 2026-04-23 02:32 | 62.17269 | 117.42812 | 38115 ft | 502 kts | 259° |
| 2026-04-23 02:32 | 62.16518 | 117.27951 | 38116 ft | 502 kts | 258° |
| 2026-04-23 02:33 | 62.15788 | 117.13102 | 38112 ft | 502 kts | 258° |
| 2026-04-23 02:33 | 62.15021 | 116.98290 | 38113 ft | 501 kts | 258° |
| 2026-04-23 02:34 | 62.14246 | 116.83485 | 38110 ft | 501 kts | 258° |
| 2026-04-23 02:34 | 62.13454 | 116.68702 | 38106 ft | 501 kts | 258° |
| 2026-04-23 02:35 | 62.12645 | 116.53936 | 38101 ft | 501 kts | 258° |
| 2026-04-23 02:35 | 62.11816 | 116.39156 | 38098 ft | 501 kts | 258° |
| 2026-04-23 02:36 | 62.10974 | 116.24394 | 38090 ft | 501 kts | 258° |
| 2026-04-23 02:36 | 62.10114 | 116.09619 | 38080 ft | 501 kts | 258° |
| 2026-04-23 02:37 | 62.09241 | 115.94882 | 38086 ft | 500 kts | 258° |
| 2026-04-23 02:37 | 62.08352 | 115.80157 | 38092 ft | 500 kts | 258° |
| 2026-04-23 02:38 | 62.07447 | 115.65445 | 38084 ft | 501 kts | 258° |
| 2026-04-23 02:38 | 62.06527 | 115.50716 | 38084 ft | 501 kts | 258° |
| 2026-04-23 02:39 | 62.05606 | 115.36085 | 38091 ft | 501 kts | 258° |
| 2026-04-23 02:39 | 62.04657 | 115.21374 | 38091 ft | 501 kts | 257° |
| 2026-04-23 02:40 | 62.03696 | 115.06654 | 38091 ft | 501 kts | 257° |
| 2026-04-23 02:40 | 62.02714 | 114.91953 | 38090 ft | 502 kts | 257° |
| 2026-04-23 02:41 | 62.01718 | 114.77239 | 38088 ft | 502 kts | 257° |
| 2026-04-23 02:41 | 62.00704 | 114.62530 | 38086 ft | 503 kts | 257° |
| 2026-04-23 02:42 | 61.99673 | 114.47794 | 38083 ft | 503 kts | 257° |
| 2026-04-23 02:42 | 61.98627 | 114.33079 | 38085 ft | 503 kts | 257° |
| 2026-04-23 02:43 | 61.97564 | 114.18365 | 38086 ft | 504 kts | 257° |
| 2026-04-23 02:43 | 61.96483 | 114.03660 | 38087 ft | 503 kts | 257° |
| 2026-04-23 02:44 | 61.95387 | 113.88969 | 38084 ft | 504 kts | 257° |
| 2026-04-23 02:44 | 61.94275 | 113.74289 | 38092 ft | 503 kts | 257° |
| 2026-04-23 02:45 | 61.93156 | 113.59726 | 38102 ft | 503 kts | 257° |
| 2026-04-23 02:45 | 61.92014 | 113.45074 | 38104 ft | 503 kts | 257° |
| 2026-04-23 02:46 | 61.90854 | 113.30403 | 38115 ft | 503 kts | 257° |
| 2026-04-23 02:46 | 61.89681 | 113.15773 | 38124 ft | 503 kts | 257° |
| 2026-04-23 02:47 | 61.88495 | 113.01174 | 38130 ft | 502 kts | 257° |
| 2026-04-23 02:47 | 61.87291 | 112.86583 | 38132 ft | 502 kts | 257° |
| 2026-04-23 02:48 | 61.86074 | 112.72022 | 38139 ft | 502 kts | 257° |
| 2026-04-23 02:48 | 61.84839 | 112.57439 | 38142 ft | 503 kts | 256° |
| 2026-04-23 02:49 | 61.83590 | 112.42883 | 38152 ft | 503 kts | 256° |
| 2026-04-23 02:49 | 61.82325 | 112.28337 | 38158 ft | 503 kts | 256° |
| 2026-04-23 02:50 | 61.81043 | 112.13778 | 38170 ft | 504 kts | 256° |
| 2026-04-23 02:50 | 61.79412 | 111.99410 | 38170 ft | 503 kts | 253° |
| 2026-04-23 02:51 | 61.77740 | 111.85036 | 38177 ft | 504 kts | 253° |
| 2026-04-23 02:51 | 61.76029 | 111.70672 | 38187 ft | 505 kts | 253° |
| 2026-04-23 02:52 | 61.74326 | 111.56395 | 38187 ft | 505 kts | 253° |
| 2026-04-23 02:52 | 61.72592 | 111.42056 | 38198 ft | 505 kts | 253° |
| 2026-04-23 02:53 | 61.70848 | 111.27716 | 38202 ft | 505 kts | 253° |
| 2026-04-23 02:53 | 61.69083 | 111.13376 | 38202 ft | 505 kts | 253° |
| 2026-04-23 02:54 | 61.67307 | 110.99065 | 38193 ft | 505 kts | 253° |
| 2026-04-23 02:54 | 61.65511 | 110.84740 | 38197 ft | 506 kts | 252° |
| 2026-04-23 02:55 | 61.63701 | 110.70433 | 38210 ft | 506 kts | 252° |
| 2026-04-23 02:55 | 61.61874 | 110.56136 | 38212 ft | 506 kts | 252° |
| 2026-04-23 02:56 | 61.60031 | 110.41836 | 38205 ft | 506 kts | 252° |
| 2026-04-23 02:56 | 61.58188 | 110.27678 | 38210 ft | 506 kts | 252° |
| 2026-04-23 02:57 | 61.56304 | 110.13326 | 38211 ft | 506 kts | 252° |
| 2026-04-23 02:57 | 61.54420 | 109.99115 | 38219 ft | 506 kts | 252° |
| 2026-04-23 02:58 | 61.52532 | 109.84989 | 38220 ft | 506 kts | 252° |
| 2026-04-23 02:58 | 61.50616 | 109.70791 | 38216 ft | 507 kts | 252° |
| 2026-04-23 02:59 | 61.48683 | 109.56592 | 38221 ft | 507 kts | 252° |
| 2026-04-23 02:59 | 61.46735 | 109.42406 | 38219 ft | 507 kts | 252° |
| 2026-04-23 03:00 | 61.44772 | 109.28238 | 38225 ft | 508 kts | 252° |
| 2026-04-23 03:00 | 61.42794 | 109.14084 | 38230 ft | 507 kts | 252° |
| 2026-04-23 03:01 | 61.40807 | 108.99992 | 38220 ft | 506 kts | 252° |
| 2026-04-23 03:01 | 61.38804 | 108.85907 | 38221 ft | 506 kts | 252° |
| 2026-04-23 03:02 | 61.36785 | 108.71831 | 38234 ft | 507 kts | 252° |
| 2026-04-23 03:02 | 61.34752 | 108.57763 | 38228 ft | 507 kts | 252° |
| 2026-04-23 03:03 | 61.32702 | 108.43710 | 38235 ft | 507 kts | 251° |
| 2026-04-23 03:03 | 61.30638 | 108.29671 | 38229 ft | 507 kts | 251° |
| 2026-04-23 03:04 | 61.28561 | 108.15660 | 38237 ft | 507 kts | 251° |
| 2026-04-23 03:04 | 61.26496 | 108.01621 | 38246 ft | 507 kts | 254° |
| 2026-04-23 03:05 | 61.24629 | 107.87499 | 38236 ft | 507 kts | 253° |
| 2026-04-23 03:05 | 61.22755 | 107.73535 | 38238 ft | 506 kts | 254° |
| 2026-04-23 03:06 | 61.20854 | 107.59352 | 38244 ft | 505 kts | 253° |
| 2026-04-23 03:06 | 61.18938 | 107.45324 | 38251 ft | 506 kts | 253° |
| 2026-04-23 03:07 | 61.17019 | 107.31284 | 38250 ft | 506 kts | 253° |
| 2026-04-23 03:07 | 61.15095 | 107.17413 | 38249 ft | 505 kts | 253° |
| 2026-04-23 03:08 | 61.13149 | 107.03449 | 38253 ft | 505 kts | 253° |
| 2026-04-23 03:08 | 61.11186 | 106.89511 | 38255 ft | 505 kts | 253° |
| 2026-04-23 03:09 | 61.09210 | 106.75582 | 38261 ft | 504 kts | 253° |
| 2026-04-23 03:09 | 61.07219 | 106.61684 | 38261 ft | 504 kts | 253° |
| 2026-04-23 03:10 | 61.05216 | 106.47808 | 38258 ft | 505 kts | 253° |
| 2026-04-23 03:10 | 61.03202 | 106.33977 | 38263 ft | 505 kts | 253° |
| 2026-04-23 03:11 | 61.01168 | 106.20117 | 38261 ft | 504 kts | 253° |
| 2026-04-23 03:11 | 60.99118 | 106.06269 | 38264 ft | 504 kts | 253° |
| 2026-04-23 03:12 | 60.97064 | 105.92500 | 38269 ft | 503 kts | 253° |
| 2026-04-23 03:12 | 60.94996 | 105.78756 | 38264 ft | 502 kts | 253° |
| 2026-04-23 03:13 | 60.92916 | 105.65039 | 38265 ft | 502 kts | 253° |
| 2026-04-23 03:13 | 60.90824 | 105.51359 | 38263 ft | 501 kts | 253° |
| 2026-04-23 03:14 | 60.88722 | 105.37711 | 38264 ft | 501 kts | 253° |
| 2026-04-23 03:14 | 60.86626 | 105.24213 | 38261 ft | 500 kts | 253° |
| 2026-04-23 03:15 | 60.84853 | 105.12878 | 38260 ft | 499 kts | 253° |
| 2026-04-23 03:15 | 60.82715 | 104.99307 | 38262 ft | 498 kts | 253° |
| 2026-04-23 03:16 | 60.80579 | 104.85850 | 38257 ft | 498 kts | 253° |
| 2026-04-23 03:16 | 60.77329 | 104.65567 | 38268 ft | 500 kts | 252° |
| 2026-04-23 03:17 | 60.75142 | 104.52052 | 38270 ft | 501 kts | 252° |
| 2026-04-23 03:17 | 60.72949 | 104.38599 | 38273 ft | 501 kts | 252° |
| 2026-04-23 03:18 | 60.70730 | 104.25104 | 38273 ft | 501 kts | 252° |
| 2026-04-23 03:18 | 60.68482 | 104.11579 | 38274 ft | 501 kts | 252° |
| 2026-04-23 03:19 | 60.66241 | 103.98172 | 38272 ft | 501 kts | 252° |
| 2026-04-23 03:19 | 60.63990 | 103.84819 | 38272 ft | 500 kts | 252° |
| 2026-04-23 03:20 | 60.61715 | 103.71410 | 38267 ft | 500 kts | 252° |
| 2026-04-23 03:20 | 60.59434 | 103.58068 | 38266 ft | 499 kts | 252° |
| 2026-04-23 03:21 | 60.57145 | 103.44772 | 38265 ft | 498 kts | 252° |
| 2026-04-23 03:21 | 60.54836 | 103.31461 | 38272 ft | 498 kts | 252° |
| 2026-04-23 03:22 | 60.52518 | 103.18191 | 38269 ft | 498 kts | 252° |
| 2026-04-23 03:22 | 60.50191 | 103.04964 | 38273 ft | 497 kts | 252° |
| 2026-04-23 03:23 | 60.47859 | 102.91792 | 38268 ft | 498 kts | 252° |
| 2026-04-23 03:23 | 60.45512 | 102.78583 | 38275 ft | 498 kts | 252° |
| 2026-04-23 03:24 | 60.43142 | 102.65369 | 38272 ft | 498 kts | 252° |
| 2026-04-23 03:24 | 60.40771 | 102.52223 | 38283 ft | 498 kts | 252° |
| 2026-04-23 03:25 | 60.38375 | 102.39041 | 38275 ft | 498 kts | 252° |
| 2026-04-23 03:25 | 60.35423 | 102.26455 | 38293 ft | 503 kts | 236° |
| 2026-04-23 03:26 | 60.31258 | 102.15044 | 38290 ft | 503 kts | 236° |
| 2026-04-23 03:26 | 60.27102 | 102.03741 | 38272 ft | 502 kts | 236° |
| 2026-04-23 03:27 | 60.22935 | 101.92455 | 38273 ft | 502 kts | 236° |
| 2026-04-23 03:27 | 60.18749 | 101.81176 | 38275 ft | 502 kts | 236° |
| 2026-04-23 03:28 | 60.14576 | 101.69982 | 38282 ft | 502 kts | 236° |
| 2026-04-23 03:28 | 60.10419 | 101.58820 | 38282 ft | 501 kts | 236° |
| 2026-04-23 03:29 | 60.06210 | 101.47585 | 38274 ft | 501 kts | 236° |
| 2026-04-23 03:29 | 60.02055 | 101.36544 | 38275 ft | 500 kts | 236° |
| 2026-04-23 03:30 | 59.97861 | 101.25448 | 38277 ft | 500 kts | 236° |
| 2026-04-23 03:30 | 59.93670 | 101.14418 | 38275 ft | 500 kts | 236° |
| 2026-04-23 03:31 | 59.89449 | 101.03356 | 38280 ft | 500 kts | 236° |
| 2026-04-23 03:31 | 59.85224 | 100.92344 | 38282 ft | 500 kts | 236° |
| 2026-04-23 03:32 | 59.80997 | 100.81371 | 38273 ft | 500 kts | 236° |
| 2026-04-23 03:32 | 59.76757 | 100.70422 | 38273 ft | 499 kts | 236° |
| 2026-04-23 03:33 | 59.72521 | 100.59528 | 38272 ft | 499 kts | 236° |
| 2026-04-23 03:33 | 59.68265 | 100.48637 | 38281 ft | 499 kts | 236° |
| 2026-04-23 03:34 | 59.64007 | 100.37790 | 38274 ft | 499 kts | 236° |
| 2026-04-23 03:34 | 59.59743 | 100.26979 | 38273 ft | 499 kts | 236° |
| 2026-04-23 03:35 | 59.55470 | 100.16195 | 38269 ft | 499 kts | 236° |
| 2026-04-23 03:35 | 59.51194 | 100.05452 | 38276 ft | 498 kts | 236° |
| 2026-04-23 03:36 | 59.46913 | 99.94748 | 38261 ft | 498 kts | 236° |
| 2026-04-23 03:36 | 59.42611 | 99.84039 | 38259 ft | 498 kts | 236° |
| 2026-04-23 03:37 | 59.38310 | 99.73381 | 38252 ft | 498 kts | 236° |
| 2026-04-23 03:37 | 59.34002 | 99.62756 | 38252 ft | 498 kts | 236° |
| 2026-04-23 03:38 | 59.29710 | 99.52215 | 38254 ft | 498 kts | 236° |
| 2026-04-23 03:38 | 59.25385 | 99.41644 | 38244 ft | 498 kts | 236° |
| 2026-04-23 03:39 | 59.21052 | 99.31099 | 38247 ft | 498 kts | 236° |
| 2026-04-23 03:39 | 59.16708 | 99.20576 | 38248 ft | 498 kts | 236° |
| 2026-04-23 03:40 | 59.12366 | 99.10105 | 38242 ft | 498 kts | 236° |
| 2026-04-23 03:40 | 59.08003 | 98.99630 | 38245 ft | 497 kts | 236° |
| 2026-04-23 03:41 | 59.03646 | 98.89214 | 38242 ft | 497 kts | 236° |
| 2026-04-23 03:41 | 58.99269 | 98.78800 | 38251 ft | 497 kts | 236° |
| 2026-04-23 03:42 | 58.94889 | 98.68424 | 38238 ft | 496 kts | 236° |
| 2026-04-23 03:42 | 58.90522 | 98.58125 | 38239 ft | 496 kts | 236° |
| 2026-04-23 03:43 | 58.86132 | 98.47816 | 38240 ft | 496 kts | 236° |
| 2026-04-23 03:43 | 58.81751 | 98.37571 | 38236 ft | 495 kts | 236° |
| 2026-04-23 03:44 | 58.77361 | 98.27355 | 38241 ft | 495 kts | 236° |
| 2026-04-23 03:44 | 58.72959 | 98.17153 | 38238 ft | 495 kts | 236° |
| 2026-04-23 03:45 | 58.68546 | 98.06969 | 38238 ft | 495 kts | 236° |
| 2026-04-23 03:45 | 58.64121 | 97.96804 | 38238 ft | 494 kts | 236° |
| 2026-04-23 03:46 | 58.59709 | 97.86711 | 38232 ft | 494 kts | 236° |
| 2026-04-23 03:46 | 58.55294 | 97.76648 | 38234 ft | 493 kts | 236° |
| 2026-04-23 03:47 | 58.50877 | 97.66606 | 38247 ft | 493 kts | 236° |
| 2026-04-23 03:47 | 58.46451 | 97.56597 | 38237 ft | 493 kts | 236° |
| 2026-04-23 03:48 | 58.42019 | 97.46610 | 38239 ft | 493 kts | 236° |
| 2026-04-23 03:48 | 58.37635 | 97.36594 | 38243 ft | 488 kts | 242° |
| 2026-04-23 03:49 | 58.33973 | 97.25785 | 38244 ft | 485 kts | 244° |
| 2026-04-23 03:49 | 58.30336 | 97.14974 | 38237 ft | 485 kts | 243° |
| 2026-04-23 03:50 | 58.26691 | 97.04197 | 38241 ft | 485 kts | 243° |
| 2026-04-23 03:50 | 58.23045 | 96.93445 | 38241 ft | 484 kts | 244° |
| 2026-04-23 03:51 | 58.19423 | 96.82782 | 38245 ft | 484 kts | 243° |
| 2026-04-23 03:51 | 58.15763 | 96.72078 | 38234 ft | 484 kts | 243° |
| 2026-04-23 03:52 | 58.12104 | 96.61409 | 38233 ft | 484 kts | 243° |
| 2026-04-23 03:52 | 58.08432 | 96.50762 | 38231 ft | 483 kts | 243° |
| 2026-04-23 03:53 | 58.04759 | 96.40151 | 38237 ft | 482 kts | 243° |
| 2026-04-23 03:53 | 58.01079 | 96.29572 | 38235 ft | 482 kts | 243° |
| 2026-04-23 03:54 | 57.97510 | 96.18914 | 38235 ft | 480 kts | 244° |
| 2026-04-23 03:54 | 57.93924 | 96.08302 | 38228 ft | 480 kts | 244° |
| 2026-04-23 03:55 | 57.90381 | 95.97676 | 38233 ft | 479 kts | 244° |
| 2026-04-23 03:55 | 57.86801 | 95.87097 | 38224 ft | 480 kts | 244° |
| 2026-04-23 03:56 | 57.83252 | 95.76599 | 38233 ft | 479 kts | 244° |
| 2026-04-23 03:56 | 57.79644 | 95.65999 | 38230 ft | 479 kts | 244° |
| 2026-04-23 03:57 | 57.76075 | 95.55551 | 38222 ft | 479 kts | 244° |
| 2026-04-23 03:57 | 57.72454 | 95.45000 | 38220 ft | 479 kts | 244° |
| 2026-04-23 03:58 | 57.68848 | 95.34536 | 38218 ft | 478 kts | 244° |
| 2026-04-23 03:58 | 57.65254 | 95.24153 | 38220 ft | 479 kts | 244° |
| 2026-04-23 03:59 | 57.61631 | 95.13736 | 38218 ft | 478 kts | 244° |
| 2026-04-23 03:59 | 57.57999 | 95.03332 | 38214 ft | 478 kts | 244° |
| 2026-04-23 04:00 | 57.54367 | 94.92980 | 38214 ft | 477 kts | 244° |
| 2026-04-23 04:00 | 57.50730 | 94.82652 | 38215 ft | 477 kts | 244° |
| 2026-04-23 04:01 | 57.47091 | 94.72364 | 38227 ft | 476 kts | 244° |
| 2026-04-23 04:01 | 57.44033 | 94.63753 | 38218 ft | 477 kts | 243° |
| 2026-04-23 04:02 | 57.40399 | 94.53565 | 38222 ft | 476 kts | 243° |
| 2026-04-23 04:02 | 57.36722 | 94.43295 | 38196 ft | 475 kts | 243° |
| 2026-04-23 04:03 | 57.33087 | 94.33185 | 38199 ft | 474 kts | 243° |
| 2026-04-23 04:03 | 57.29425 | 94.23046 | 38193 ft | 474 kts | 243° |
| 2026-04-23 04:04 | 57.25760 | 94.12939 | 38183 ft | 473 kts | 243° |
| 2026-04-23 04:04 | 57.22095 | 94.02875 | 38177 ft | 472 kts | 243° |
| 2026-04-23 04:05 | 57.18416 | 93.92815 | 38168 ft | 472 kts | 243° |
| 2026-04-23 04:05 | 57.14735 | 93.82790 | 38162 ft | 472 kts | 242° |
| 2026-04-23 04:06 | 57.11042 | 93.72775 | 38157 ft | 473 kts | 242° |
| 2026-04-23 04:06 | 57.07344 | 93.62790 | 38147 ft | 473 kts | 242° |
| 2026-04-23 04:07 | 57.03638 | 93.52821 | 38141 ft | 472 kts | 242° |
| 2026-04-23 04:07 | 56.99924 | 93.42875 | 38139 ft | 473 kts | 242° |
| 2026-04-23 04:08 | 56.96194 | 93.32923 | 38131 ft | 473 kts | 242° |
| 2026-04-23 04:08 | 56.92457 | 93.22997 | 38125 ft | 473 kts | 242° |
| 2026-04-23 04:09 | 56.89128 | 93.12751 | 38136 ft | 463 kts | 252° |
| 2026-04-23 04:09 | 56.86542 | 93.01956 | 38123 ft | 463 kts | 252° |
| 2026-04-23 04:10 | 56.83950 | 92.91191 | 38120 ft | 462 kts | 252° |
| 2026-04-23 04:10 | 56.81353 | 92.80452 | 38107 ft | 462 kts | 252° |
| 2026-04-23 04:11 | 56.78750 | 92.69748 | 38095 ft | 461 kts | 252° |
| 2026-04-23 04:11 | 56.76140 | 92.59063 | 38095 ft | 461 kts | 252° |
| 2026-04-23 04:12 | 56.73528 | 92.48422 | 38091 ft | 460 kts | 252° |
| 2026-04-23 04:12 | 56.70906 | 92.37790 | 38090 ft | 460 kts | 252° |
| 2026-04-23 04:13 | 56.68275 | 92.27179 | 38085 ft | 460 kts | 252° |
| 2026-04-23 04:13 | 56.65635 | 92.16578 | 38079 ft | 460 kts | 252° |
| 2026-04-23 04:14 | 56.63004 | 92.06067 | 38081 ft | 460 kts | 252° |
| 2026-04-23 04:14 | 56.60351 | 91.95517 | 38071 ft | 460 kts | 252° |
| 2026-04-23 04:15 | 56.57684 | 91.84959 | 38073 ft | 459 kts | 252° |
| 2026-04-23 04:16 | 56.53677 | 91.69195 | 38078 ft | 459 kts | 251° |
| 2026-04-23 04:16 | 56.50995 | 91.58708 | 38068 ft | 458 kts | 251° |
| 2026-04-23 04:17 | 56.48315 | 91.48270 | 38064 ft | 458 kts | 251° |
| 2026-04-23 04:17 | 56.45783 | 91.37752 | 38061 ft | 456 kts | 252° |
| 2026-04-23 04:18 | 56.43259 | 91.27240 | 38057 ft | 455 kts | 253° |
| 2026-04-23 04:18 | 56.40757 | 91.16751 | 38054 ft | 454 kts | 252° |
| 2026-04-23 04:19 | 56.38239 | 91.06310 | 38055 ft | 453 kts | 252° |
| 2026-04-23 04:19 | 56.35723 | 90.95894 | 38052 ft | 453 kts | 252° |
| 2026-04-23 04:20 | 56.33194 | 90.85492 | 38055 ft | 452 kts | 252° |
| 2026-04-23 04:20 | 56.30662 | 90.75120 | 38044 ft | 452 kts | 252° |
| 2026-04-23 04:21 | 56.28122 | 90.64768 | 38045 ft | 452 kts | 252° |
| 2026-04-23 04:21 | 56.25873 | 90.54284 | 38056 ft | 448 kts | 256° |
| 2026-04-23 04:22 | 56.23765 | 90.43734 | 38050 ft | 448 kts | 256° |
| 2026-04-23 04:22 | 56.21657 | 90.33198 | 38044 ft | 448 kts | 256° |
| 2026-04-23 04:23 | 56.19551 | 90.22745 | 38038 ft | 448 kts | 255° |
| 2026-04-23 04:23 | 56.17427 | 90.12248 | 38034 ft | 447 kts | 255° |
| 2026-04-23 04:24 | 56.15295 | 90.01773 | 38042 ft | 447 kts | 255° |
| 2026-04-23 04:24 | 56.13164 | 89.91363 | 38033 ft | 443 kts | 255° |
| 2026-04-23 04:25 | 56.11037 | 89.81009 | 38037 ft | 443 kts | 255° |
| 2026-04-23 04:25 | 56.08894 | 89.70645 | 38016 ft | 444 kts | 255° |
| 2026-04-23 04:26 | 56.06744 | 89.60297 | 38029 ft | 444 kts | 255° |
| 2026-04-23 04:26 | 56.04585 | 89.49958 | 38016 ft | 444 kts | 254° |
| 2026-04-23 04:27 | 56.02416 | 89.39621 | 38008 ft | 444 kts | 254° |
| 2026-04-23 04:27 | 56.00240 | 89.29310 | 37998 ft | 443 kts | 254° |
| 2026-04-23 04:28 | 55.96961 | 89.13865 | 37993 ft | 443 kts | 254° |
| 2026-04-23 04:28 | 55.94765 | 89.03588 | 37982 ft | 443 kts | 254° |
| 2026-04-23 04:29 | 55.92545 | 88.93326 | 37973 ft | 444 kts | 253° |
| 2026-04-23 04:29 | 55.90317 | 88.83069 | 37965 ft | 444 kts | 253° |
| 2026-04-23 04:30 | 55.88080 | 88.72819 | 37961 ft | 443 kts | 253° |
| 2026-04-23 04:30 | 55.85836 | 88.62594 | 37947 ft | 443 kts | 253° |
| 2026-04-23 04:31 | 55.83586 | 88.52384 | 37946 ft | 443 kts | 253° |
| 2026-04-23 04:31 | 55.81344 | 88.42266 | 37935 ft | 443 kts | 253° |
| 2026-04-23 04:32 | 55.79076 | 88.32078 | 37928 ft | 443 kts | 253° |
| 2026-04-23 04:32 | 55.76801 | 88.21909 | 37917 ft | 443 kts | 253° |
| 2026-04-23 04:33 | 55.74517 | 88.11749 | 37910 ft | 443 kts | 253° |
| 2026-04-23 04:33 | 55.72247 | 88.01722 | 37899 ft | 429 kts | 253° |
| 2026-04-23 04:34 | 55.71150 | 87.96885 | 37898 ft | 417 kts | 253° |
| 2026-04-23 04:34 | 55.70071 | 87.92115 | 37901 ft | 419 kts | 253° |
| 2026-04-23 04:34 | 55.67850 | 87.82353 | 37907 ft | 434 kts | 252° |
| 2026-04-23 04:35 | 55.65551 | 87.72336 | 37901 ft | 442 kts | 252° |
| 2026-04-23 04:35 | 55.63226 | 87.62229 | 37900 ft | 443 kts | 252° |
| 2026-04-23 04:36 | 55.60895 | 87.52153 | 37887 ft | 442 kts | 252° |
| 2026-04-23 04:36 | 55.58560 | 87.42093 | 37876 ft | 442 kts | 252° |
| 2026-04-23 04:37 | 55.56216 | 87.32040 | 37866 ft | 442 kts | 252° |
| 2026-04-23 04:37 | 55.53864 | 87.22006 | 37854 ft | 442 kts | 252° |
| 2026-04-23 04:38 | 55.51506 | 87.11989 | 37844 ft | 442 kts | 252° |
| 2026-04-23 04:38 | 55.49138 | 87.01978 | 37847 ft | 442 kts | 251° |
| 2026-04-23 04:39 | 55.46764 | 86.91985 | 37835 ft | 442 kts | 251° |
| 2026-04-23 04:39 | 55.44380 | 86.82000 | 37821 ft | 442 kts | 251° |
| 2026-04-23 04:40 | 55.41992 | 86.72042 | 37816 ft | 442 kts | 251° |
| 2026-04-23 04:40 | 55.39593 | 86.62085 | 37800 ft | 441 kts | 251° |
| 2026-04-23 04:41 | 55.37191 | 86.52161 | 37797 ft | 441 kts | 251° |
| 2026-04-23 04:41 | 55.34780 | 86.42245 | 37796 ft | 441 kts | 251° |
| 2026-04-23 04:42 | 55.32365 | 86.32357 | 37793 ft | 440 kts | 251° |
| 2026-04-23 04:42 | 55.29942 | 86.22482 | 37795 ft | 440 kts | 251° |
| 2026-04-23 04:43 | 55.27644 | 86.12630 | 37807 ft | 437 kts | 257° |
| 2026-04-23 04:43 | 55.26659 | 86.02210 | 37812 ft | 433 kts | 267° |
| 2026-04-23 04:44 | 55.26147 | 85.91687 | 37788 ft | 430 kts | 267° |
| 2026-04-23 04:44 | 55.25894 | 85.86464 | 36995 ft | 432 kts | 267° |
| 2026-04-23 04:44 | 55.25641 | 85.81218 | 36309 ft | 432 kts | 267° |
| 2026-04-23 04:45 | 55.25383 | 85.75983 | 35671 ft | 430 kts | 267° |
| 2026-04-23 04:45 | 55.25121 | 85.70768 | 35040 ft | 429 kts | 266° |
| 2026-04-23 04:45 | 55.24860 | 85.65569 | 34398 ft | 428 kts | 266° |
| 2026-04-23 04:45 | 55.24598 | 85.60386 | 33745 ft | 426 kts | 266° |
| 2026-04-23 04:46 | 55.24334 | 85.55233 | 33067 ft | 423 kts | 266° |
| 2026-04-23 04:46 | 55.24070 | 85.50119 | 32428 ft | 419 kts | 266° |
| 2026-04-23 04:46 | 55.23806 | 85.45044 | 31793 ft | 416 kts | 266° |
| 2026-04-23 04:46 | 55.23543 | 85.40024 | 31160 ft | 412 kts | 266° |
| 2026-04-23 04:47 | 55.23281 | 85.35050 | 30534 ft | 409 kts | 266° |
| 2026-04-23 04:47 | 55.23018 | 85.30108 | 29906 ft | 406 kts | 266° |
| 2026-04-23 04:47 | 55.22755 | 85.25211 | 29255 ft | 401 kts | 266° |
| 2026-04-23 04:47 | 55.22494 | 85.20378 | 28635 ft | 396 kts | 266° |
| 2026-04-23 04:48 | 55.22234 | 85.15605 | 28026 ft | 391 kts | 266° |
| 2026-04-23 04:48 | 55.21976 | 85.10889 | 27416 ft | 387 kts | 266° |
| 2026-04-23 04:48 | 55.21719 | 85.06235 | 26807 ft | 382 kts | 266° |
| 2026-04-23 04:48 | 55.21463 | 85.01629 | 26223 ft | 377 kts | 266° |
| 2026-04-23 04:49 | 55.21294 | 84.98609 | 25830 ft | 375 kts | 266° |
| 2026-04-23 04:49 | 55.21040 | 84.94094 | 25237 ft | 371 kts | 266° |
| 2026-04-23 04:49 | 55.20787 | 84.89620 | 24673 ft | 367 kts | 266° |
| 2026-04-23 04:49 | 55.20536 | 84.85212 | 24124 ft | 363 kts | 266° |
| 2026-04-23 04:50 | 55.20285 | 84.80830 | 23535 ft | 360 kts | 266° |
| 2026-04-23 04:50 | 55.20034 | 84.76492 | 22903 ft | 357 kts | 266° |
| 2026-04-23 04:50 | 55.19786 | 84.72203 | 22333 ft | 351 kts | 265° |
| 2026-04-23 04:50 | 55.19350 | 84.68022 | 21816 ft | 349 kts | 256° |
| 2026-04-23 04:51 | 55.18656 | 84.63968 | 21368 ft | 348 kts | 256° |
| 2026-04-23 04:51 | 55.17961 | 84.59909 | 20896 ft | 350 kts | 256° |
| 2026-04-23 04:51 | 55.17259 | 84.55825 | 20438 ft | 350 kts | 256° |
| 2026-04-23 04:51 | 55.16555 | 84.51758 | 19965 ft | 349 kts | 255° |
| 2026-04-23 04:52 | 55.15853 | 84.47701 | 19514 ft | 348 kts | 255° |
| 2026-04-23 04:52 | 55.15153 | 84.43661 | 19053 ft | 346 kts | 255° |
| 2026-04-23 04:52 | 55.14457 | 84.39654 | 18592 ft | 344 kts | 255° |
| 2026-04-23 04:52 | 55.13763 | 84.35671 | 18154 ft | 342 kts | 255° |
| 2026-04-23 04:53 | 55.13070 | 84.31704 | 17676 ft | 339 kts | 255° |
| 2026-04-23 04:53 | 55.12384 | 84.27779 | 17213 ft | 336 kts | 255° |
| 2026-04-23 04:53 | 55.11702 | 84.23889 | 16758 ft | 334 kts | 255° |
| 2026-04-23 04:53 | 55.11022 | 84.20019 | 16318 ft | 332 kts | 255° |
| 2026-04-23 04:54 | 55.10349 | 84.16196 | 15900 ft | 329 kts | 255° |
| 2026-04-23 04:54 | 55.09678 | 84.12394 | 15471 ft | 326 kts | 255° |
| 2026-04-23 04:54 | 55.09011 | 84.08623 | 15031 ft | 324 kts | 255° |
| 2026-04-23 04:54 | 55.08348 | 84.04875 | 14599 ft | 322 kts | 254° |
| 2026-04-23 04:55 | 55.07887 | 84.01076 | 14188 ft | 318 kts | 264° |
| 2026-04-23 04:55 | 55.07656 | 83.97243 | 13767 ft | 317 kts | 264° |
| 2026-04-23 04:55 | 55.07429 | 83.93434 | 13320 ft | 314 kts | 264° |
| 2026-04-23 04:55 | 55.07198 | 83.89660 | 12896 ft | 312 kts | 264° |
| 2026-04-23 04:56 | 55.06964 | 83.85906 | 12479 ft | 312 kts | 264° |
| 2026-04-23 04:56 | 55.06729 | 83.82148 | 12072 ft | 311 kts | 264° |
| 2026-04-23 04:56 | 55.06496 | 83.78397 | 11670 ft | 311 kts | 264° |
| 2026-04-23 04:56 | 55.06262 | 83.74664 | 10929 ft | 307 kts | 264° |
| 2026-04-23 04:57 | 55.06027 | 83.70940 | 10461 ft | 310 kts | 264° |
| 2026-04-23 04:57 | 55.05791 | 83.67229 | 10232 ft | 304 kts | 264° |
| 2026-04-23 04:57 | 55.05569 | 83.63735 | 10195 ft | 279 kts | 263° |
| 2026-04-23 04:57 | 55.05365 | 83.60543 | 10198 ft | 257 kts | 263° |
| 2026-04-23 04:58 | 55.05163 | 83.57401 | 9801 ft | 262 kts | 263° |
| 2026-04-23 04:58 | 55.04960 | 83.54251 | 9329 ft | 261 kts | 263° |
| 2026-04-23 04:58 | 55.04757 | 83.51120 | 8828 ft | 260 kts | 263° |
| 2026-04-23 04:58 | 55.04554 | 83.48001 | 8342 ft | 258 kts | 264° |
| 2026-04-23 04:59 | 55.04351 | 83.44893 | 7874 ft | 257 kts | 264° |
| 2026-04-23 04:59 | 55.04151 | 83.41823 | 7547 ft | 252 kts | 263° |
| 2026-04-23 04:59 | 55.03952 | 83.38823 | 7470 ft | 251 kts | 263° |
| 2026-04-23 04:59 | 55.03750 | 83.35771 | 7207 ft | 255 kts | 263° |
| 2026-04-23 05:00 | 55.03570 | 83.32698 | 6816 ft | 253 kts | 269° |
| 2026-04-23 05:00 | 55.03575 | 83.29650 | 6469 ft | 253 kts | 269° |
| 2026-04-23 05:00 | 55.03547 | 83.26545 | 6105 ft | 260 kts | 269° |
| 2026-04-23 05:00 | 55.03524 | 83.23369 | 5699 ft | 263 kts | 270° |
| 2026-04-23 05:01 | 55.03510 | 83.20203 | 5298 ft | 259 kts | 270° |
| 2026-04-23 05:01 | 55.03495 | 83.17079 | 4913 ft | 257 kts | 269° |
| 2026-04-23 05:01 | 55.03475 | 83.13980 | 4529 ft | 255 kts | 269° |
| 2026-04-23 05:01 | 55.03455 | 83.10877 | 4129 ft | 257 kts | 269° |
| 2026-04-23 05:02 | 55.03435 | 83.07758 | 3754 ft | 257 kts | 269° |
| 2026-04-23 05:02 | 55.03415 | 83.04633 | 3374 ft | 259 kts | 269° |
| 2026-04-23 05:02 | 55.03393 | 83.01487 | 2980 ft | 260 kts | 269° |
| 2026-04-23 05:02 | 55.03367 | 82.98346 | 2675 ft | 258 kts | 269° |
| 2026-04-23 05:03 | 55.03345 | 82.95239 | 2404 ft | 255 kts | 268° |
| 2026-04-23 05:03 | 55.03324 | 82.92153 | 2104 ft | 254 kts | 269° |
| 2026-04-23 05:03 | 55.03298 | 82.89127 | 1976 ft | 237 kts | 269° |
| 2026-04-23 05:03 | 55.03154 | 82.86422 | 2018 ft | 228 kts | 259° |
| 2026-04-23 05:04 | 55.02901 | 82.83593 | 2034 ft | 235 kts | 260° |
| 2026-04-23 05:04 | 55.02679 | 82.80986 | 1998 ft | 204 kts | 259° |
| 2026-04-23 05:04 | 55.02477 | 82.78626 | 2104 ft | 186 kts | 259° |
| 2026-04-23 05:04 | 55.02264 | 82.76367 | 2342 ft | 196 kts | 258° |
| 2026-04-23 05:05 | 55.02051 | 82.74024 | 2187 ft | 199 kts | 258° |
| 2026-04-23 05:05 | 55.01839 | 82.71680 | 2011 ft | 194 kts | 259° |
| 2026-04-23 05:05 | 55.01632 | 82.69381 | 2000 ft | 192 kts | 260° |
| 2026-04-23 05:05 | 55.01426 | 82.67085 | 2012 ft | 191 kts | 259° |
| 2026-04-23 05:06 | 55.01219 | 82.64764 | 2002 ft | 192 kts | 260° |
| 2026-04-23 05:06 | 55.01034 | 82.62480 | 1988 ft | 193 kts | 261° |
| 2026-04-23 05:06 | 55.00852 | 82.60171 | 2006 ft | 193 kts | 260° |
| 2026-04-23 05:06 | 55.00674 | 82.57878 | 1987 ft | 189 kts | 260° |
| 2026-04-23 05:07 | 55.00202 | 82.55733 | 1996 ft | 185 kts | 233° |
| 2026-04-23 05:07 | 54.99494 | 82.53846 | 1996 ft | 187 kts | 232° |
| 2026-04-23 05:07 | 54.98770 | 82.51961 | 2009 ft | 187 kts | 232° |
| 2026-04-23 05:07 | 54.98053 | 82.50079 | 2009 ft | 186 kts | 232° |
| 2026-04-23 05:08 | 54.97331 | 82.48182 | 2005 ft | 186 kts | 232° |
| 2026-04-23 05:08 | 54.96616 | 82.46313 | 1969 ft | 186 kts | 232° |
| 2026-04-23 05:08 | 54.95895 | 82.44411 | 1964 ft | 189 kts | 238° |
| 2026-04-23 05:08 | 54.95430 | 82.42241 | 1981 ft | 196 kts | 247° |
| 2026-04-23 05:09 | 54.94986 | 82.40033 | 1983 ft | 190 kts | 249° |
| 2026-04-23 05:09 | 54.94563 | 82.37848 | 1984 ft | 187 kts | 249° |
| 2026-04-23 05:09 | 54.94135 | 82.35675 | 1984 ft | 193 kts | 249° |
| 2026-04-23 05:09 | 54.93933 | 82.33416 | 1937 ft | 192 kts | 282° |
| 2026-04-23 05:10 | 54.94561 | 82.31467 | 1975 ft | 189 kts | 322° |
| 2026-04-23 05:10 | 54.95709 | 82.30644 | 1979 ft | 174 kts | 2° |
| 2026-04-23 05:10 | 54.96903 | 82.30748 | 1961 ft | 171 kts | 19° |
| 2026-04-23 05:10 | 54.97890 | 82.31772 | 1981 ft | 167 kts | 46° |
| 2026-04-23 05:11 | 54.98438 | 82.33446 | 1992 ft | 157 kts | 78° |
| 2026-04-23 05:11 | 54.98582 | 82.35351 | 1987 ft | 159 kts | 86° |
| 2026-04-23 05:11 | 54.98703 | 82.37240 | 1974 ft | 157 kts | 83° |
| 2026-04-23 05:11 | 54.98869 | 82.39112 | 1980 ft | 156 kts | 83° |
| 2026-04-23 05:12 | 54.99040 | 82.40993 | 1983 ft | 156 kts | 83° |
| 2026-04-23 05:12 | 54.99214 | 82.42846 | 1979 ft | 156 kts | 83° |
| 2026-04-23 05:12 | 54.99384 | 82.44692 | 1981 ft | 153 kts | 82° |
| 2026-04-23 05:12 | 54.99557 | 82.46563 | 1979 ft | 160 kts | 82° |
| 2026-04-23 05:13 | 54.99707 | 82.48188 | 1819 ft | 154 kts | 82° |
| 2026-04-23 05:13 | 54.99876 | 82.50023 | 1641 ft | 152 kts | 82° |
| 2026-04-23 05:13 | 55.00038 | 82.51850 | 1446 ft | 153 kts | 82° |
| 2026-04-23 05:14 | 55.00376 | 82.55490 | 1073 ft | 155 kts | 81° |
| 2026-04-23 05:14 | 55.00545 | 82.57412 | 904 ft | 163 kts | 84° |
| 2026-04-23 05:14 | 55.00722 | 82.59399 | 716 ft | 169 kts | 82° |
| 2026-04-23 05:14 | 55.00920 | 82.61414 | 563 ft | 170 kts | 81° |
| 2026-04-23 05:15 | 55.01101 | 82.63436 | 391 ft | 166 kts | 82° |
| 2026-04-23 05:15 | 55.01256 | 82.65171 | 380 ft | 116 kts | 80° |
| 2026-04-23 05:15 | 55.01354 | 82.66273 | 379 ft | 74 kts | 79° |
| 2026-04-23 05:15 | 55.01427 | 82.67065 | 380 ft | 50 kts | 81° |
| 2026-04-23 05:16 | 55.01468 | 82.67562 | 377 ft | 39 kts | 83° |
| 2026-04-23 05:16 | 55.01471 | 82.67753 | 378 ft | 2 kts | 124° |
| 2026-04-23 05:16 | 55.01458 | 82.67765 | 378 ft | 2 kts | 155° |
| 2026-04-23 05:16 | 55.01439 | 82.67767 | 378 ft | 5 kts | 180° |
| 2026-04-23 05:17 | 55.01390 | 82.67739 | 379 ft | 11 kts | 206° |
| 2026-04-23 05:17 | 55.01301 | 82.67648 | 380 ft | 19 kts | 211° |
| 2026-04-23 05:17 | 55.01171 | 82.67513 | 380 ft | 22 kts | 210° |
| 2026-04-23 05:17 | 55.01120 | 82.67453 | 380 ft | 1 kts | 235° |
| 2026-04-23 05:18 | 55.01113 | 82.67416 | 380 ft | 5 kts | 256° |
| 2026-04-23 05:18 | 55.01110 | 82.67347 | 380 ft | 2 kts | 282° |
| 2026-04-23 05:18 | 55.01117 | 82.67328 | 380 ft | 3 kts | 304° |
| 2026-04-23 05:18 | 55.01135 | 82.67307 | 380 ft | 3 kts | 334° |
| 2026-04-23 05:19 | 55.01147 | 82.67304 | 380 ft | 2 kts | 348° |
| 2026-04-23 05:19 | 55.01173 | 82.67302 | 380 ft | 4 kts | 357° |
| 2026-04-23 05:19 | 55.01175 | 82.67301 | 380 ft | 0 kts | 356° |